Time;durP1;ratioP1;P1;durP2;ratioP2;P2;SDS_P1;SDS_P2;PMS_P1;PMS_P2;Temp;Humidity;BMP_temperature;BMP_pressure;BME280_temperature;BME280_humidity;BME280_pressure;Samples;Min_cycle;Max_cycle;Signal;HPM_P1;HPM_P2
2022/09/10 00:01:20;;;;;;;;;;;22.60;68.50;;;;;;5022214;28;88078;-43
2022/09/10 00:03:48;;;;;;;;;;;22.60;68.50;;;;;;5022920;28;86806;-44
2022/09/10 00:06:14;;;;;;;;;;;22.60;68.40;;;;;;5022614;28;86920;-44
2022/09/10 00:08:40;;;;;;;;;;;22.60;68.40;;;;;;5021716;28;87954;-43
2022/09/10 00:11:07;;;;;;;;;;;22.60;68.40;;;;;;5021880;28;87804;-44
2022/09/10 00:13:33;;;;;;;;;;;22.60;68.40;;;;;;5022626;28;88404;-44
2022/09/10 00:16:00;;;;;;;;;;;22.60;68.40;;;;;;5024842;28;87115;-44
2022/09/10 00:18:26;;;;;;;;;;;22.60;68.40;;;;;;5022165;28;88802;-44
2022/09/10 00:20:52;;;;;;;;;;;22.60;68.40;;;;;;5022103;28;88079;-44
2022/09/10 00:23:20;;;;;;;;;;;22.60;68.40;;;;;;5022010;28;87085;-44
2022/09/10 00:25:45;;;;;;;;;;;22.60;68.40;;;;;;5022231;28;86947;-44
2022/09/10 00:28:11;;;;;;;;;;;22.60;68.40;;;;;;5022345;28;86661;-44
2022/09/10 00:30:40;;;;;;;;;;;22.60;68.40;;;;;;5022242;28;87059;-44
2022/09/10 00:33:06;;;;;;;;;;;22.60;68.50;;;;;;5022180;28;86983;-44
2022/09/10 00:35:32;;;;;;;;;;;22.60;68.40;;;;;;5021298;28;89244;-44
2022/09/10 00:37:57;;;;;;;;;;;22.60;68.50;;;;;;5024848;28;87085;-44
2022/09/10 00:40:23;;;;;;;;;;;22.50;68.40;;;;;;5021815;28;88262;-43
2022/09/10 00:42:48;;;;;;;;;;;22.50;68.40;;;;;;5022234;28;87094;-44
2022/09/10 00:45:19;;;;;;;;;;;22.50;68.40;;;;;;5022714;28;87433;-44
2022/09/10 00:47:46;;;;;;;;;;;22.50;68.40;;;;;;5025252;28;87712;-44
2022/09/10 00:50:17;;;;;;;;;;;22.50;68.40;;;;;;5025318;28;87077;-45
2022/09/10 00:52:45;;;;;;;;;;;22.50;68.40;;;;;;5025917;28;87394;-44
2022/09/10 00:55:11;;;;;;;;;;;22.50;68.40;;;;;;5024956;28;88027;-44
2022/09/10 00:57:37;;;;;;;;;;;22.50;68.50;;;;;;5025280;28;87042;-44
2022/09/10 01:00:05;;;;;;;;;;;22.50;68.50;;;;;;5027324;28;88074;-45
2022/09/10 01:02:30;;;;;;;;;;;22.50;68.50;;;;;;5025115;28;87218;-44
2022/09/10 01:04:57;;;;;;;;;;;22.50;68.50;;;;;;5025339;28;87388;-44
2022/09/10 01:07:23;;;;;;;;;;;22.50;68.50;;;;;;5024262;28;88572;-44
2022/09/10 01:09:49;;;;;;;;;;;22.40;68.40;;;;;;5025426;28;86925;-44
2022/09/10 01:12:14;;;;;;;;;;;22.40;68.50;;;;;;5025237;28;87492;-45
2022/09/10 01:14:40;;;;;;;;;;;22.50;68.50;;;;;;5024700;28;87965;-44
2022/09/10 01:17:21;;;;;;;;;;;22.50;68.50;;;;;;5025822;28;86361;-45
2022/09/10 01:19:49;;;;;;;;;;;22.40;68.40;;;;;;5025126;28;86998;-44
2022/09/10 01:22:14;;;;;;;;;;;22.40;68.50;;;;;;5027699;28;88304;-44
2022/09/10 01:25:00;;;;;;;;;;;22.40;68.50;;;;;;5024416;28;87953;-44
2022/09/10 01:27:40;;;;;;;;;;;22.40;68.40;;;;;;5019984;28;87209;-44
2022/09/10 01:30:13;;;;;;;;;;;22.40;68.50;;;;;;5025003;28;87162;-44
2022/09/10 01:32:44;;;;;;;;;;;22.40;68.50;;;;;;5024850;28;88518;-44
2022/09/10 01:35:15;;;;;;;;;;;22.40;68.50;;;;;;5024589;28;88180;-44
2022/09/10 01:37:48;;;;;;;;;;;22.40;68.50;;;;;;5024114;28;87095;-44
2022/09/10 01:40:16;;;;;;;;;;;22.30;68.50;;;;;;5025024;28;87639;-44
2022/09/10 01:42:41;;;;;;;;;;;22.30;68.40;;;;;;5024844;28;87196;-45
2022/09/10 01:45:10;;;;;;;;;;;22.40;68.50;;;;;;5027834;28;87045;-44
2022/09/10 01:47:54;;;;;;;;;;;22.40;68.50;;;;;;5024278;28;88346;-45
2022/09/10 01:50:29;;;;;;;;;;;22.30;68.50;;;;;;5023815;28;88068;-44
2022/09/10 01:53:09;;;;;;;;;;;22.40;68.50;;;;;;5024101;28;89930;-45
2022/09/10 01:55:44;;;;;;;;;;;22.30;68.40;;;;;;5024075;28;88209;-44
2022/09/10 01:58:21;;;;;;;;;;;22.30;68.60;;;;;;5024496;28;87103;-44
2022/09/10 02:01:07;;;;;;;;;;;22.30;68.50;;;;;;5024602;28;87388;-44
2022/09/10 02:03:34;;;;;;;;;;;22.30;68.50;;;;;;5012015;28;88246;-44
2022/09/10 02:06:01;;;;;;;;;;;22.30;68.50;;;;;;5027033;28;87055;-44
2022/09/10 02:08:29;;;;;;;;;;;22.30;68.50;;;;;;5024118;28;87260;-44
2022/09/10 02:10:58;;;;;;;;;;;22.30;68.50;;;;;;5024143;28;87095;-44
2022/09/10 02:13:23;;;;;;;;;;;22.30;68.50;;;;;;5024308;28;88005;-44
2022/09/10 02:15:51;;;;;;;;;;;22.30;68.50;;;;;;5022933;28;89107;-44
2022/09/10 02:18:17;;;;;;;;;;;22.30;68.50;;;;;;5023800;28;87064;-45
2022/09/10 02:20:44;;;;;;;;;;;22.30;68.60;;;;;;5024101;28;87060;-44
2022/09/10 02:23:11;;;;;;;;;;;22.30;68.60;;;;;;5023830;28;88027;-44
2022/09/10 02:25:36;;;;;;;;;;;22.30;68.60;;;;;;5023825;28;87085;-44
2022/09/10 02:28:03;;;;;;;;;;;22.20;68.60;;;;;;5026362;28;87627;-44
2022/09/10 02:30:29;;;;;;;;;;;22.30;68.60;;;;;;5023692;28;87202;-44
2022/09/10 02:32:54;;;;;;;;;;;22.20;68.50;;;;;;5024470;28;87340;-44
2022/09/10 02:35:20;;;;;;;;;;;22.30;68.60;;;;;;5023545;28;87442;-44
2022/09/10 02:37:45;;;;;;;;;;;22.20;68.50;;;;;;5023630;28;87181;-44
2022/09/10 02:40:11;;;;;;;;;;;22.20;68.50;;;;;;5023491;28;88002;-44
2022/09/10 02:42:37;;;;;;;;;;;22.20;68.50;;;;;;5022881;28;88744;-44
2022/09/10 02:45:03;;;;;;;;;;;22.20;68.50;;;;;;5023576;28;87105;-44
2022/09/10 02:47:29;;;;;;;;;;;22.20;68.50;;;;;;5023563;28;88583;-44
2022/09/10 02:49:54;;;;;;;;;;;22.20;68.50;;;;;;5025951;28;90095;-44
2022/09/10 02:52:20;;;;;;;;;;;22.20;68.50;;;;;;5023621;28;86904;-44
2022/09/10 02:54:47;;;;;;;;;;;22.20;68.50;;;;;;5023198;28;87491;-44
2022/09/10 02:57:13;;;;;;;;;;;22.20;68.50;;;;;;5023771;28;86512;-44
2022/09/10 02:59:38;;;;;;;;;;;22.20;68.50;;;;;;5023765;28;87160;-45
2022/09/10 03:02:04;;;;;;;;;;;22.20;68.50;;;;;;5023228;28;88401;-44
2022/09/10 03:04:29;;;;;;;;;;;22.20;68.60;;;;;;5022806;28;88080;-44
2022/09/10 03:06:55;;;;;;;;;;;22.20;68.50;;;;;;5023547;28;88420;-45
2022/09/10 03:09:21;;;;;;;;;;;22.20;68.60;;;;;;5021759;28;88094;-44
2022/09/10 03:11:47;;;;;;;;;;;22.10;68.60;;;;;;5025964;28;87210;-45
2022/09/10 03:14:18;;;;;;;;;;;22.10;68.60;;;;;;5023125;28;87582;-44
2022/09/10 03:16:44;;;;;;;;;;;22.10;68.60;;;;;;5023073;28;87042;-44
2022/09/10 03:19:11;;;;;;;;;;;22.10;68.60;;;;;;5023351;28;88736;-44
2022/09/10 03:21:40;;;;;;;;;;;22.10;68.60;;;;;;5023254;28;87237;-44
2022/09/10 03:24:05;;;;;;;;;;;22.10;68.50;;;;;;5023011;28;87072;-45
2022/09/10 03:26:31;;;;;;;;;;;22.10;68.50;;;;;;5023258;28;87407;-44
2022/09/10 03:28:57;;;;;;;;;;;22.10;68.60;;;;;;5022034;28;88994;-44
2022/09/10 03:31:22;;;;;;;;;;;22.10;68.60;;;;;;5023056;28;86967;-44
2022/09/10 03:33:48;;;;;;;;;;;22.10;68.60;;;;;;5025650;28;87558;-45
2022/09/10 03:36:14;;;;;;;;;;;22.10;68.60;;;;;;5023181;28;87092;-44
2022/09/10 03:38:39;;;;;;;;;;;22.10;68.70;;;;;;5022623;28;88870;-44
2022/09/10 03:41:05;;;;;;;;;;;22.10;68.60;;;;;;5022396;28;88097;-45
2022/09/10 03:43:31;;;;;;;;;;;22.10;68.60;;;;;;5022850;28;86971;-44
2022/09/10 03:45:56;;;;;;;;;;;22.10;68.60;;;;;;5023158;28;87452;-45
2022/09/10 03:48:22;;;;;;;;;;;22.10;68.60;;;;;;5022425;28;87245;-44
2022/09/10 03:50:50;;;;;;;;;;;22.00;68.60;;;;;;5022875;28;87018;-44
2022/09/10 03:53:16;;;;;;;;;;;22.00;68.60;;;;;;5022172;28;87924;-44
2022/09/10 03:55:42;;;;;;;;;;;22.00;68.60;;;;;;5024951;28;87998;-44
2022/09/10 03:58:08;;;;;;;;;;;22.00;68.60;;;;;;5022543;28;87435;-45
2022/09/10 04:00:34;;;;;;;;;;;22.00;68.60;;;;;;5022325;28;88202;-44
2022/09/10 04:03:00;;;;;;;;;;;22.00;68.70;;;;;;5022579;28;86934;-44
2022/09/10 04:05:26;;;;;;;;;;;22.00;68.70;;;;;;5022780;28;87129;-45
2022/09/10 04:07:53;;;;;;;;;;;22.00;68.70;;;;;;5021422;28;89458;-45
2022/09/10 04:10:22;;;;;;;;;;;22.00;68.70;;;;;;5022798;28;86329;-45
2022/09/10 04:12:47;;;;;;;;;;;22.00;68.70;;;;;;5022346;28;88221;-44
2022/09/10 04:15:13;;;;;;;;;;;22.00;68.60;;;;;;5025195;28;88071;-45
2022/09/10 04:17:39;;;;;;;;;;;22.00;68.70;;;;;;5021932;28;88103;-44
2022/09/10 04:20:04;;;;;;;;;;;22.00;68.70;;;;;;5022229;28;87952;-44
2022/09/10 04:22:30;;;;;;;;;;;21.90;68.70;;;;;;5026047;28;87267;-44
2022/09/10 04:24:55;;;;;;;;;;;22.00;68.80;;;;;;5025795;28;87400;-44
2022/09/10 04:27:21;;;;;;;;;;;22.00;68.70;;;;;;5025633;28;87942;-44
2022/09/10 04:29:47;;;;;;;;;;;21.90;68.70;;;;;;5025785;28;87264;-44
2022/09/10 04:32:12;;;;;;;;;;;21.90;68.70;;;;;;5025767;28;87997;-44
2022/09/10 04:34:38;;;;;;;;;;;22.00;68.80;;;;;;5026170;28;87083;-45
2022/09/10 04:37:04;;;;;;;;;;;21.90;68.70;;;;;;5028615;28;87080;-44
2022/09/10 04:39:29;;;;;;;;;;;21.90;68.70;;;;;;5024751;28;89502;-44
2022/09/10 04:41:55;;;;;;;;;;;22.00;68.70;;;;;;5025060;28;87905;-44
2022/09/10 04:44:20;;;;;;;;;;;21.90;68.60;;;;;;5025858;28;88662;-44
2022/09/10 04:46:46;;;;;;;;;;;21.90;68.60;;;;;;5025214;28;89371;-44
2022/09/10 04:49:12;;;;;;;;;;;21.90;68.80;;;;;;5025449;28;87113;-44
2022/09/10 04:51:37;;;;;;;;;;;21.90;68.70;;;;;;5025603;28;86983;-45
2022/09/10 04:54:03;;;;;;;;;;;21.90;68.70;;;;;;5025153;28;88131;-44
2022/09/10 04:56:29;;;;;;;;;;;21.90;68.70;;;;;;5025050;28;87148;-44
2022/09/10 04:58:54;;;;;;;;;;;21.90;68.80;;;;;;5028356;28;87254;-44
2022/09/10 05:01:20;;;;;;;;;;;21.90;68.80;;;;;;5025264;28;87231;-44
2022/09/10 05:03:45;;;;;;;;;;;21.90;68.80;;;;;;5025412;28;87706;-44
2022/09/10 05:06:11;;;;;;;;;;;21.90;68.80;;;;;;5024307;28;89122;-44
2022/09/10 05:08:36;;;;;;;;;;;21.90;68.80;;;;;;5024838;28;87113;-44
2022/09/10 05:11:02;;;;;;;;;;;21.90;68.70;;;;;;5025228;28;87620;-44
2022/09/10 05:13:30;;;;;;;;;;;21.80;68.70;;;;;;5024793;28;89306;-44
2022/09/10 05:15:57;;;;;;;;;;;21.90;68.70;;;;;;5024966;28;87113;-44
2022/09/10 05:18:24;;;;;;;;;;;21.80;68.70;;;;;;5024881;28;88038;-44
2022/09/10 05:20:50;;;;;;;;;;;21.80;68.70;;;;;;5027553;28;89371;-44
2022/09/10 05:23:16;;;;;;;;;;;21.90;68.80;;;;;;5025402;28;87355;-44
2022/09/10 05:25:42;;;;;;;;;;;21.80;68.70;;;;;;5024704;28;87932;-44
2022/09/10 05:28:08;;;;;;;;;;;21.90;68.80;;;;;;5025033;28;87114;-44
2022/09/10 05:30:33;;;;;;;;;;;21.80;68.70;;;;;;5024016;28;88834;-45
2022/09/10 05:32:59;;;;;;;;;;;21.80;68.70;;;;;;5024012;28;88149;-44
2022/09/10 05:35:25;;;;;;;;;;;21.80;68.70;;;;;;5024841;28;87160;-44
2022/09/10 05:37:51;;;;;;;;;;;21.90;69.30;;;;;;5025035;28;87316;-44
2022/09/10 05:40:16;;;;;;;;;;;21.90;68.70;;;;;;5024156;28;87989;-45
2022/09/10 05:42:42;;;;;;;;;;;21.90;68.70;;;;;;5027776;28;87085;-44
2022/09/10 05:45:09;;;;;;;;;;;21.80;68.70;;;;;;5024455;28;87969;-44
2022/09/10 05:47:35;;;;;;;;;;;21.90;68.70;;;;;;5025237;28;86354;-44
2022/09/10 05:50:00;;;;;;;;;;;21.80;68.70;;;;;;5024312;28;88352;-45
2022/09/10 05:52:26;;;;;;;;;;;21.80;68.70;;;;;;5024367;28;87885;-44
2022/09/10 05:54:51;;;;;;;;;;;21.90;68.70;;;;;;5023972;28;88185;-44
2022/09/10 05:57:17;;;;;;;;;;;21.80;68.60;;;;;;5024010;28;89881;-44
2022/09/10 05:59:42;;;;;;;;;;;21.80;68.70;;;;;;5024290;28;87214;-44
2022/09/10 06:02:14;;;;;;;;;;;21.80;68.70;;;;;;5024570;28;87123;-44
2022/09/10 06:04:40;;;;;;;;;;;21.80;68.70;;;;;;5027247;28;86992;-45
2022/09/10 06:07:07;;;;;;;;;;;21.80;68.70;;;;;;5024367;28;87111;-44
2022/09/10 06:09:33;;;;;;;;;;;21.80;68.70;;;;;;5023598;28;88860;-45
2022/09/10 06:11:58;;;;;;;;;;;21.80;68.70;;;;;;5024522;28;87273;-45
2022/09/10 06:14:24;;;;;;;;;;;21.80;68.70;;;;;;5024407;28;87081;-44
2022/09/10 06:16:52;;;;;;;;;;;21.80;68.70;;;;;;5024270;28;87060;-44
2022/09/10 06:19:18;;;;;;;;;;;21.80;68.70;;;;;;5022863;28;88214;-44
2022/09/10 06:21:45;;;;;;;;;;;21.80;68.70;;;;;;5023928;28;87093;-44
2022/09/10 06:24:11;;;;;;;;;;;21.80;68.80;;;;;;5026416;28;89119;-44
2022/09/10 06:26:37;;;;;;;;;;;21.80;68.90;;;;;;5024196;28;87212;-45
2022/09/10 06:29:02;;;;;;;;;;;21.80;68.70;;;;;;5024247;28;87442;-45
2022/09/10 06:31:28;;;;;;;;;;;21.80;68.80;;;;;;5023732;28;88053;-46
2022/09/10 06:33:53;;;;;;;;;;;21.80;68.80;;;;;;5024160;28;87490;-44
2022/09/10 06:36:19;;;;;;;;;;;21.80;68.80;;;;;;5024318;28;87471;-44
2022/09/10 06:38:44;;;;;;;;;;;21.80;68.80;;;;;;5023438;28;87276;-44
2022/09/10 06:41:11;;;;;;;;;;;21.80;68.70;;;;;;5023628;28;87097;-44
2022/09/10 06:43:37;;;;;;;;;;;21.90;68.80;;;;;;5022256;28;87913;-44
2022/09/10 06:46:08;;;;;;;;;;;21.90;68.80;;;;;;5026258;28;87949;-44
2022/09/10 06:48:38;;;;;;;;;;;21.80;68.70;;;;;;5023709;28;88962;-44
2022/09/10 06:51:03;;;;;;;;;;;21.90;68.80;;;;;;5022985;28;89632;-45
2022/09/10 06:53:32;;;;;;;;;;;21.80;68.70;;;;;;5023316;28;87210;-44
2022/09/10 06:55:58;;;;;;;;;;;21.80;68.80;;;;;;5023178;28;88859;-44
2022/09/10 06:58:24;;;;;;;;;;;21.80;68.90;;;;;;5023007;28;87970;-44
2022/09/10 07:00:50;;;;;;;;;;;21.80;69.00;;;;;;5024191;28;86338;-44
2022/09/10 07:03:16;;;;;;;;;;;21.80;68.90;;;;;;5023242;28;87286;-45
2022/09/10 07:05:42;;;;;;;;;;;21.80;69.00;;;;;;5023103;28;87984;-44
2022/09/10 07:08:11;;;;;;;;;;;21.80;68.90;;;;;;5025019;28;88140;-45
2022/09/10 07:10:37;;;;;;;;;;;21.80;68.90;;;;;;5022875;28;89311;-44
2022/09/10 07:13:02;;;;;;;;;;;21.80;68.90;;;;;;5023320;28;87095;-44
2022/09/10 07:15:28;;;;;;;;;;;21.80;68.90;;;;;;5023110;28;89312;-45
2022/09/10 07:17:54;;;;;;;;;;;21.80;68.90;;;;;;5022721;28;88105;-44
2022/09/10 07:20:22;;;;;;;;;;;21.80;68.80;;;;;;5023050;28;87088;-46
2022/09/10 07:22:50;;;;;;;;;;;21.90;68.80;;;;;;5022793;28;89025;-44
2022/09/10 07:25:15;;;;;;;;;;;21.90;68.80;;;;;;5023325;28;87444;-45
2022/09/10 07:27:41;;;;;;;;;;;21.90;68.60;;;;;;5023170;28;87104;-45
2022/09/10 07:30:07;;;;;;;;;;;21.90;68.60;;;;;;5025793;28;87486;-45
2022/09/10 07:32:32;;;;;;;;;;;22.00;68.50;;;;;;5021960;28;88076;-44
2022/09/10 07:34:58;;;;;;;;;;;21.90;68.50;;;;;;5023201;28;88604;-45
2022/09/10 07:37:24;;;;;;;;;;;21.90;68.50;;;;;;5022459;28;88069;-45
2022/09/10 07:39:50;;;;;;;;;;;22.00;68.60;;;;;;5022759;28;87035;-44
2022/09/10 07:42:15;;;;;;;;;;;21.90;68.60;;;;;;5022901;28;87526;-45
2022/09/10 07:44:41;;;;;;;;;;;22.00;68.70;;;;;;5022305;28;89404;-45
2022/09/10 07:47:06;;;;;;;;;;;21.90;68.70;;;;;;5022930;28;87122;-44
2022/09/10 07:49:32;;;;;;;;;;;22.00;68.70;;;;;;5023277;28;87446;-45
2022/09/10 07:51:58;;;;;;;;;;;22.00;68.70;;;;;;5025475;28;87636;-45
2022/09/10 07:54:24;;;;;;;;;;;22.00;68.70;;;;;;5022411;28;88856;-44
2022/09/10 07:56:49;;;;;;;;;;;22.00;68.80;;;;;;5021422;28;88155;-44
2022/09/10 07:59:15;;;;;;;;;;;22.00;68.70;;;;;;5022478;28;87197;-45
2022/09/10 08:01:41;;;;;;;;;;;22.00;68.70;;;;;;5022677;28;87395;-45
2022/09/10 08:04:06;;;;;;;;;;;22.00;68.70;;;;;;5022319;28;88070;-44
2022/09/10 08:06:32;;;;;;;;;;;22.00;68.70;;;;;;5022576;28;87100;-45
2022/09/10 08:08:58;;;;;;;;;;;22.00;68.70;;;;;;5021991;28;87039;-44
2022/09/10 08:11:25;;;;;;;;;;;22.00;68.60;;;;;;5021876;28;89446;-46
2022/09/10 08:13:51;;;;;;;;;;;22.00;68.60;;;;;;5025822;28;86105;-44
2022/09/10 08:16:18;;;;;;;;;;;22.00;68.70;;;;;;5022086;28;88234;-45
2022/09/10 08:18:44;;;;;;;;;;;22.00;68.60;;;;;;5022223;28;87065;-45
2022/09/10 08:21:10;;;;;;;;;;;22.00;68.70;;;;;;5021812;28;87769;-44
2022/09/10 08:23:36;;;;;;;;;;;22.00;68.70;;;;;;5022138;28;87231;-44
2022/09/10 08:26:03;;;;;;;;;;;22.00;68.70;;;;;;5022400;28;87076;-45
2022/09/10 08:28:28;;;;;;;;;;;22.00;68.70;;;;;;5022206;28;89215;-44
2022/09/10 08:31:02;;;;;;;;;;;22.00;68.70;;;;;;5021766;28;89439;-45
2022/09/10 08:33:28;;;;;;;;;;;22.10;68.70;;;;;;5024944;28;87347;-45
2022/09/10 08:35:55;;;;;;;;;;;22.10;68.80;;;;;;5021612;28;88312;-45
2022/09/10 08:38:22;;;;;;;;;;;22.10;68.70;;;;;;5022402;28;86450;-44
2022/09/10 08:40:47;;;;;;;;;;;22.10;68.70;;;;;;5022037;28;87063;-44
2022/09/10 08:43:14;;;;;;;;;;;22.10;68.70;;;;;;5021874;28;88230;-45
2022/09/10 08:45:44;;;;;;;;;;;22.10;68.60;;;;;;5021431;28;87937;-44
2022/09/10 08:48:15;;;;;;;;;;;22.10;68.70;;;;;;5021807;28;87556;-45
2022/09/10 08:50:48;;;;;;;;;;;22.10;68.60;;;;;;5021548;28;89335;-46
2022/09/10 08:53:18;;;;;;;;;;;22.10;68.70;;;;;;5021790;28;87219;-45
2022/09/10 08:55:44;;;;;;;;;;;22.10;68.70;;;;;;5024330;28;87420;-45
2022/09/10 08:58:22;;;;;;;;;;;22.10;68.70;;;;;;5021657;28;87072;-45
2022/09/10 09:00:52;;;;;;;;;;;22.10;68.70;;;;;;5021833;28;88979;-45
2022/09/10 09:03:20;;;;;;;;;;;22.10;68.70;;;;;;5022341;28;86456;-45
2022/09/10 09:05:52;;;;;;;;;;;22.10;68.70;;;;;;5021909;28;87144;-45
2022/09/10 09:08:20;;;;;;;;;;;22.10;68.70;;;;;;5024486;28;88870;-44
2022/09/10 09:10:51;;;;;;;;;;;22.10;68.70;;;;;;5024002;28;90609;-44
2022/09/10 09:13:16;;;;;;;;;;;22.10;68.70;;;;;;5025085;28;87159;-46
2022/09/10 09:15:55;;;;;;;;;;;22.10;68.70;;;;;;5024959;28;87018;-44
2022/09/10 09:18:30;;;;;;;;;;;22.20;68.70;;;;;;5027993;28;86999;-45
2022/09/10 09:20:56;;;;;;;;;;;22.10;68.70;;;;;;5025320;28;87082;-44
2022/09/10 09:23:25;;;;;;;;;;;22.10;68.70;;;;;;5024682;28;88010;-45
2022/09/10 09:25:50;;;;;;;;;;;22.20;68.70;;;;;;5025025;28;86959;-44
2022/09/10 09:28:35;;;;;;;;;;;22.20;68.80;;;;;;5025225;28;87421;-44
2022/09/10 09:31:05;;;;;;;;;;;22.20;68.80;;;;;;5024716;28;87713;-45
2022/09/10 09:33:31;;;;;;;;;;;22.20;68.70;;;;;;5025096;28;86950;-45
2022/09/10 09:36:02;;;;;;;;;;;22.20;68.70;;;;;;5024227;28;88021;-45
2022/09/10 09:38:41;;;;;;;;;;;22.20;68.70;;;;;;5024056;28;88263;-45
2022/09/10 09:41:25;;;;;;;;;;;22.20;68.70;;;;;;5027804;28;87063;-45
2022/09/10 09:43:59;;;;;;;;;;;22.20;68.70;;;;;;5024495;28;87662;-45
2022/09/10 09:46:25;;;;;;;;;;;22.30;68.70;;;;;;5024730;28;86981;-45
2022/09/10 09:48:58;;;;;;;;;;;22.30;68.70;;;;;;5024193;28;87979;-44
2022/09/10 09:51:24;;;;;;;;;;;22.30;68.60;;;;;;5023973;28;89616;-45
2022/09/10 09:53:52;;;;;;;;;;;22.30;68.70;;;;;;5025014;28;86411;-45
2022/09/10 09:56:26;;;;;;;;;;;22.30;68.70;;;;;;5024511;28;87228;-44
2022/09/10 09:58:52;;;;;;;;;;;22.30;68.70;;;;;;5023873;28;89937;-46
2022/09/10 10:01:19;;;;;;;;;;;22.30;68.70;;;;;;5023770;28;88032;-45
2022/09/10 10:03:57;;;;;;;;;;;22.30;68.60;;;;;;5026820;28;88870;-45
2022/09/10 10:06:23;;;;;;;;;;;22.30;68.60;;;;;;5024289;28;87211;-45
2022/09/10 10:08:58;;;;;;;;;;;22.30;68.60;;;;;;5023876;28;88871;-45
2022/09/10 10:11:44;;;;;;;;;;;22.40;68.70;;;;;;5023771;28;89814;-46
2022/09/10 10:14:21;;;;;;;;;;;22.40;68.70;;;;;;5023969;28;86997;-45
2022/09/10 10:16:48;;;;;;;;;;;22.40;68.70;;;;;;5024162;28;88964;-45
2022/09/10 10:19:26;;;;;;;;;;;22.40;68.70;;;;;;5024106;28;87290;-45
2022/09/10 10:21:53;;;;;;;;;;;22.40;69.00;;;;;;5024153;28;86866;-45
2022/09/10 10:24:29;;;;;;;;;;;22.50;68.90;;;;;;5026506;28;88743;-45
2022/09/10 10:26:55;;;;;;;;;;;22.50;68.80;;;;;;5023424;28;88054;-45
2022/09/10 10:29:20;;;;;;;;;;;22.50;69.20;;;;;;5024165;28;88488;-45
2022/09/10 10:31:47;;;;;;;;;;;22.50;68.80;;;;;;5023348;28;88141;-45
2022/09/10 10:34:15;;;;;;;;;;;22.50;68.80;;;;;;5024024;28;87091;-45
2022/09/10 10:36:40;;;;;;;;;;;22.50;68.70;;;;;;5023856;28;87070;-45
2022/09/10 10:39:23;;;;;;;;;;;22.50;68.80;;;;;;5023077;28;88261;-45
2022/09/10 10:41:48;;;;;;;;;;;22.60;69.30;;;;;;5023716;28;87009;-45
2022/09/10 10:44:26;;;;;;;;;;;22.60;68.90;;;;;;5024476;28;87422;-45
2022/09/10 10:47:01;;;;;;;;;;;22.50;68.90;;;;;;5026257;28;88028;-45
2022/09/10 10:49:45;;;;;;;;;;;22.60;69.00;;;;;;5023724;28;87064;-44
2022/09/10 10:52:25;;;;;;;;;;;22.60;69.30;;;;;;5022785;28;88955;-45
2022/09/10 10:54:51;;;;;;;;;;;22.60;69.40;;;;;;5023849;28;87104;-45
2022/09/10 10:57:35;;;;;;;;;;;22.60;69.20;;;;;;5023545;28;87764;-44
2022/09/10 11:00:02;;;;;;;;;;;22.60;69.30;;;;;;5023158;28;87974;-44
2022/09/10 11:02:51;;;;;;;;;;;22.60;69.40;;;;;;5023436;28;87073;-44
2022/09/10 11:05:26;;;;;;;;;;;22.60;69.20;;;;;;5023351;28;89044;-45
2022/09/10 11:07:53;;;;;;;;;;;22.70;69.30;;;;;;5020945;28;91080;-45
2022/09/10 11:10:45;;;;;;;;;;;22.70;69.50;;;;;;5026643;28;86326;-45
2022/09/10 11:13:23;;;;;;;;;;;22.70;69.30;;;;;;5021752;28;88331;-45
2022/09/10 11:15:54;;;;;;;;;;;22.70;69.40;;;;;;5023202;28;87135;-45
2022/09/10 11:18:42;;;;;;;;;;;22.70;69.30;;;;;;5022392;28;87918;-46
2022/09/10 11:21:19;;;;;;;;;;;22.70;69.40;;;;;;5022637;28;88519;-45
2022/09/10 11:23:48;;;;;;;;;;;22.70;69.40;;;;;;5023223;28;87120;-45
2022/09/10 11:26:16;;;;;;;;;;;22.70;69.40;;;;;;5023060;28;87346;-44
2022/09/10 11:28:46;;;;;;;;;;;22.70;69.60;;;;;;5022526;28;88335;-44
2022/09/10 11:31:16;;;;;;;;;;;22.70;69.60;;;;;;5022963;28;86978;-45
2022/09/10 11:33:46;;;;;;;;;;;22.70;69.50;;;;;;5025369;28;89021;-44
2022/09/10 11:36:24;;;;;;;;;;;22.70;69.40;;;;;;5023655;28;86295;-44
2022/09/10 11:39:02;;;;;;;;;;;22.70;69.30;;;;;;5022857;28;87279;-45
2022/09/10 11:41:28;;;;;;;;;;;22.80;69.40;;;;;;5022349;28;88118;-45
2022/09/10 11:44:03;;;;;;;;;;;22.70;69.20;;;;;;5021082;28;89583;-44
2022/09/10 11:46:32;;;;;;;;;;;22.70;69.80;;;;;;5022977;28;88376;-46
2022/09/10 11:48:58;;;;;;;;;;;22.70;71.00;;;;;;5022469;28;88071;-46
2022/09/10 11:51:29;;;;;;;;;;;22.70;70.30;;;;;;5022763;28;87073;-44
2022/09/10 11:53:55;;;;;;;;;;;22.70;70.40;;;;;;5022756;28;87074;-45
2022/09/10 11:56:32;;;;;;;;;;;22.70;70.70;;;;;;5024988;28;89130;-46
2022/09/10 11:59:13;;;;;;;;;;;22.80;70.20;;;;;;5022637;28;87441;-44
2022/09/10 12:01:44;;;;;;;;;;;22.90;70.30;;;;;;5022839;28;87334;-47
2022/09/10 12:04:29;;;;;;;;;;;22.90;70.40;;;;;;5022880;28;87110;-44
2022/09/10 12:07:00;;;;;;;;;;;23.00;70.10;;;;;;5022630;28;87188;-49
2022/09/10 12:09:31;;;;;;;;;;;23.10;71.00;;;;;;5021565;28;89088;-52
2022/09/10 12:12:16;;;;;;;;;;;23.10;71.10;;;;;;5022785;28;86991;-46
2022/09/10 12:14:42;;;;;;;;;;;23.10;71.00;;;;;;5022463;28;87888;-49
2022/09/10 12:17:16;;;;;;;;;;;23.20;70.70;;;;;;5022035;28;88309;-49
2022/09/10 12:19:53;;;;;;;;;;;23.10;71.00;;;;;;5025120;28;87545;-44
2022/09/10 12:22:19;;;;;;;;;;;23.20;71.40;;;;;;5021965;28;89322;-44
2022/09/10 12:25:10;;;;;;;;;;;23.20;71.30;;;;;;5022530;28;87103;-46
2022/09/10 12:28:04;;;;;;;;;;;23.20;70.80;;;;;;5020425;28;87227;-47
2022/09/10 12:30:30;;;;;;;;;;;23.20;70.50;;;;;;5019441;28;89471;-51
2022/09/10 12:32:59;;;;;;;;;;;23.20;70.30;;;;;;5022260;28;87111;-50
2022/09/10 12:35:31;;;;;;;;;;;23.20;69.90;;;;;;5021121;28;88946;-46
2022/09/10 12:38:16;;;;;;;;;;;23.20;69.80;;;;;;5021755;28;88051;-43
2022/09/10 12:40:43;;;;;;;;;;;23.20;69.90;;;;;;5025063;28;87102;-42
2022/09/10 12:43:27;;;;;;;;;;;23.30;70.00;;;;;;5025021;28;88095;-42
2022/09/10 12:45:59;;;;;;;;;;;23.30;70.10;;;;;;5025952;28;87099;-43
2022/09/10 12:48:25;;;;;;;;;;;23.20;70.70;;;;;;5025895;28;86929;-47
2022/09/10 12:51:04;;;;;;;;;;;23.30;71.30;;;;;;5024698;28;89152;-47
2022/09/10 12:53:49;;;;;;;;;;;23.20;71.40;;;;;;5026229;28;86238;-48
2022/09/10 12:56:18;;;;;;;;;;;23.20;71.80;;;;;;5003474;28;87100;-46
2022/09/10 12:58:58;;;;;;;;;;;23.20;72.30;;;;;;5025164;28;88163;-52
2022/09/10 13:01:36;;;;;;;;;;;23.30;72.50;;;;;;5024646;28;88101;-49
2022/09/10 13:04:01;;;;;;;;;;;23.30;72.90;;;;;;5027994;28;88373;-53
2022/09/10 13:06:38;;;;;;;;;;;23.30;72.90;;;;;;5025477;28;87249;-51
2022/09/10 13:09:15;;;;;;;;;;;23.40;73.10;;;;;;5025199;28;87542;-46
2022/09/10 13:11:43;;;;;;;;;;;23.50;73.00;;;;;;5024817;28;89784;-43
2022/09/10 13:14:14;;;;;;;;;;;23.50;73.20;;;;;;5025107;28;87066;-45
2022/09/10 13:16:40;;;;;;;;;;;23.50;73.00;;;;;;5025146;28;87459;-50
2022/09/10 13:19:11;;;;;;;;;;;23.60;73.30;;;;;;5025440;28;87181;-50
2022/09/10 13:21:37;;;;;;;;;;;23.70;73.10;;;;;;5025220;28;87257;-52
2022/09/10 13:24:23;;;;;;;;;;;23.70;72.80;;;;;;5025287;28;87420;-53
2022/09/10 13:26:51;;;;;;;;;;;23.80;72.30;;;;;;5026919;28;89004;-45
2022/09/10 13:29:25;;;;;;;;;;;23.80;71.50;;;;;;5024658;28;88320;-48
2022/09/10 13:31:58;;;;;;;;;;;23.80;71.50;;;;;;5024675;28;87316;-49
2022/09/10 13:34:47;;;;;;;;;;;23.70;71.60;;;;;;5025121;28;86887;-48
2022/09/10 13:37:12;;;;;;;;;;;23.80;71.30;;;;;;5024532;28;89108;-50
2022/09/10 13:39:49;;;;;;;;;;;23.80;70.60;;;;;;5024279;28;88158;-48
2022/09/10 13:42:34;;;;;;;;;;;23.80;70.40;;;;;;5024728;28;87019;-48
2022/09/10 13:45:18;;;;;;;;;;;23.80;70.40;;;;;;5025037;28;88948;-51
2022/09/10 13:47:59;;;;;;;;;;;23.80;70.30;;;;;;5024549;28;88065;-45
2022/09/10 13:50:27;;;;;;;;;;;23.80;69.60;;;;;;5027815;28;86990;-45
2022/09/10 13:52:55;;;;;;;;;;;23.80;69.70;;;;;;5022827;28;90558;-47
2022/09/10 13:55:25;;;;;;;;;;;23.90;69.40;;;;;;5024755;28;87104;-48
2022/09/10 13:57:53;;;;;;;;;;;23.80;69.80;;;;;;5023967;28;89157;-50
2022/09/10 14:00:27;;;;;;;;;;;23.80;70.50;;;;;;5024032;28;87966;-46
2022/09/10 14:02:55;;;;;;;;;;;23.90;69.90;;;;;;5024559;28;87143;-48
2022/09/10 14:05:21;;;;;;;;;;;23.90;70.20;;;;;;5024276;28;87336;-47
2022/09/10 14:07:46;;;;;;;;;;;24.00;70.00;;;;;;5023049;28;89345;-50
2022/09/10 14:10:13;;;;;;;;;;;24.00;70.00;;;;;;5024790;28;86252;-54
2022/09/10 14:12:39;;;;;;;;;;;24.00;70.70;;;;;;5026863;28;86934;-53
2022/09/10 14:15:06;;;;;;;;;;;24.00;69.90;;;;;;5024297;28;87319;-59
2022/09/10 14:17:40;;;;;;;;;;;24.00;69.90;;;;;;5023752;28;87807;-49
2022/09/10 14:20:23;;;;;;;;;;;24.00;70.00;;;;;;5023554;28;89320;-50
2022/09/10 14:22:58;;;;;;;;;;;24.10;70.00;;;;;;5023660;28;87127;-45
2022/09/10 14:25:32;;;;;;;;;;;24.10;69.10;;;;;;5024413;28;87043;-50
2022/09/10 14:28:12;;;;;;;;;;;24.10;68.70;;;;;;5024053;28;87889;-45